Time;durP1;ratioP1;P1;durP2;ratioP2;P2;SDS_P1;SDS_P2;PMS_P1;PMS_P2;Temp;Humidity;BMP_temperature;BMP_pressure;BME280_temperature;BME280_humidity;BME280_pressure;Samples;Min_cycle;Max_cycle;Signal;HPM_P1;HPM_P2
2022/07/06 00:00:12;;;;;;;1.30;1.20;;;21.60;54.70;;;;;;6256731;23;20156;-88
2022/07/06 00:02:40;;;;;;;1.10;1.00;;;21.60;54.70;;;;;;6231656;23;20153;-89
2022/07/06 00:05:06;;;;;;;1.20;1.00;;;21.60;54.70;;;;;;6232186;23;20623;-87
2022/07/06 00:07:34;;;;;;;1.20;1.10;;;21.60;54.80;;;;;;6231368;23;20146;-91
2022/07/06 00:10:00;;;;;;;1.10;1.00;;;21.70;54.80;;;;;;6225255;23;20164;-88
2022/07/06 00:12:26;;;;;;;0.93;0.88;;;21.60;54.80;;;;;;6225380;23;20146;-88
2022/07/06 00:14:54;;;;;;;1.23;1.13;;;21.60;54.80;;;;;;6225098;23;20269;-87
2022/07/06 00:17:23;;;;;;;1.35;1.05;;;21.70;54.80;;;;;;6200209;23;20146;-89
2022/07/06 00:19:49;;;;;;;1.17;1.08;;;21.70;54.80;;;;;;6200452;23;20146;-88
2022/07/06 00:22:17;;;;;;;1.15;1.05;;;21.60;54.80;;;;;;6199885;23;20156;-88
2022/07/06 00:24:44;;;;;;;1.20;1.10;;;21.70;54.80;;;;;;6200535;23;20265;-89
2022/07/06 00:27:12;;;;;;;1.27;1.15;;;21.70;54.80;;;;;;6225126;23;20139;-87
2022/07/06 00:29:46;;;;;;;2.15;1.20;;;21.70;54.80;;;;;;6227101;23;20154;-89
2022/07/06 00:32:13;;;;;;;1.17;1.08;;;21.70;54.80;;;;;;6227529;23;20138;-87
2022/07/06 00:34:40;;;;;;;0.98;0.98;;;21.60;54.80;;;;;;6201827;23;20220;-89
2022/07/06 00:37:06;;;;;;;1.20;1.10;;;21.60;54.80;;;;;;6202559;23;20220;-88
2022/07/06 00:39:33;;;;;;;1.17;1.08;;;21.60;54.80;;;;;;6227040;23;20143;-87
2022/07/06 00:41:59;;;;;;;1.40;1.30;;;21.60;54.80;;;;;;6202207;23;20146;-89
2022/07/06 00:44:24;;;;;;;1.13;1.02;;;21.70;54.80;;;;;;6226975;23;20142;-88
2022/07/06 00:46:50;;;;;;;1.10;1.00;;;21.60;54.80;;;;;;6207921;23;20153;-88
2022/07/06 00:52:02;;;;;;;1.25;0.90;;;21.60;54.80;;;;;;6238035;23;20217;-88
2022/07/06 00:54:30;;;;;;;1.20;1.10;;;21.60;54.80;;;;;;6208428;23;20173;-88
2022/07/06 00:56:56;;;;;;;1.17;1.08;;;21.60;54.90;;;;;;6233332;23;20148;-87
2022/07/06 00:59:22;;;;;;;1.08;0.98;;;21.60;54.90;;;;;;6196946;23;20537;-90
2022/07/06 01:01:49;;;;;;;1.30;1.17;;;21.60;54.90;;;;;;6196923;23;20169;-87
2022/07/06 01:04:15;;;;;;;0.85;0.85;;;21.60;54.90;;;;;;6197149;23;20277;-87
2022/07/06 01:06:43;;;;;;;1.40;1.20;;;21.60;55.00;;;;;;6196484;23;20194;-89
2022/07/06 01:09:08;;;;;;;1.40;1.27;;;21.60;54.90;;;;;;6197934;23;20161;-87
2022/07/06 01:11:39;;;;;;;1.30;1.02;;;21.60;55.00;;;;;;6196690;23;20588;-87
2022/07/06 01:14:07;;;;;;;1.17;1.08;;;21.60;54.90;;;;;;6171021;23;20182;-86
2022/07/06 01:16:34;;;;;;;1.20;1.10;;;21.60;55.00;;;;;;6172010;23;20169;-89
2022/07/06 01:19:08;;;;;;;1.02;0.93;;;21.60;54.90;;;;;;6196994;23;20233;-87
2022/07/06 01:21:38;;;;;;;1.10;1.00;;;21.60;54.90;;;;;;6196988;23;20147;-87
2022/07/06 01:24:07;;;;;;;1.00;1.00;;;21.70;55.00;;;;;;6197296;23;20254;-88
2022/07/06 01:26:32;;;;;;;1.02;1.02;;;21.60;54.90;;;;;;6172155;23;20170;-87
2022/07/06 01:28:59;;;;;;;1.23;1.00;;;21.70;55.00;;;;;;6172075;23;20490;-91
2022/07/06 01:31:25;;;;;;;1.30;1.20;;;21.60;55.00;;;;;;6206642;23;20154;-88
2022/07/06 01:33:54;;;;;;;1.17;1.08;;;21.60;55.00;;;;;;6207137;23;20184;-90
2022/07/06 01:36:23;;;;;;;1.23;1.00;;;21.60;55.00;;;;;;6233115;23;20191;-91
2022/07/06 01:38:51;;;;;;;1.15;1.05;;;21.70;55.00;;;;;;6208087;23;20144;-89
2022/07/06 01:41:20;;;;;;;1.25;1.15;;;21.70;55.10;;;;;;6181758;23;20155;-87
2022/07/06 01:43:46;;;;;;;1.10;1.00;;;21.60;55.00;;;;;;6207230;23;20141;-88
2022/07/06 01:46:12;;;;;;;0.90;0.90;;;21.60;55.00;;;;;;6232980;23;20156;-88
2022/07/06 01:48:39;;;;;;;1.40;1.30;;;21.60;55.00;;;;;;6207777;23;20165;-87
2022/07/06 01:51:05;;;;;;;1.33;1.13;;;21.60;55.00;;;;;;6233386;23;20133;-87
2022/07/06 01:53:32;;;;;;;1.40;1.30;;;21.60;55.00;;;;;;6232517;23;20635;-89
2022/07/06 01:55:59;;;;;;;1.13;1.02;;;21.60;55.00;;;;;;6232336;23;20145;-87
2022/07/06 01:58:25;;;;;;;1.20;1.10;;;21.60;55.10;;;;;;6207442;23;20137;-87
2022/07/06 02:00:55;;;;;;;1.23;1.13;;;21.60;55.10;;;;;;6232508;23;20137;-87
2022/07/06 02:03:22;;;;;;;1.30;1.20;;;21.70;55.10;;;;;;6232750;23;20141;-86
2022/07/06 02:24:17;;;;;;;0.90;0.90;;;21.60;55.10;;;;;;6286752;22;20191;-87
2022/07/06 02:26:46;;;;;;;1.15;1.00;;;21.60;55.10;;;;;;6212564;22;20157;-87
2022/07/06 02:29:12;;;;;;;1.15;1.05;;;21.60;55.10;;;;;;6262706;22;20129;-87
2022/07/06 02:31:38;;;;;;;1.20;1.10;;;21.60;55.10;;;;;;6212777;22;20480;-87
2022/07/06 02:34:06;;;;;;;1.58;1.25;;;21.60;55.20;;;;;;6211816;22;20173;-88
2022/07/06 02:36:34;;;;;;;1.20;1.10;;;21.60;55.10;;;;;;6212920;22;20159;-90
2022/07/06 02:39:03;;;;;;;1.00;0.90;;;21.60;55.10;;;;;;6212508;22;20161;-87
2022/07/06 02:41:30;;;;;;;1.17;0.88;;;21.60;55.10;;;;;;6211511;22;20145;-87
2022/07/06 02:43:55;;;;;;;1.52;1.20;;;21.60;55.20;;;;;;6236797;22;20152;-89
2022/07/06 02:46:21;;;;;;;1.58;1.08;;;21.60;55.20;;;;;;6210345;22;20137;-88
2022/07/06 02:48:47;;;;;;;1.40;1.10;;;21.60;55.20;;;;;;6210358;22;20156;-87
2022/07/06 02:51:13;;;;;;;1.50;1.27;;;21.60;55.20;;;;;;6209533;22;20304;-88
2022/07/06 02:53:38;;;;;;;1.35;1.25;;;21.60;55.20;;;;;;6233730;22;20161;-89
2022/07/06 02:56:04;;;;;;;1.02;1.00;;;21.60;55.20;;;;;;6207011;22;20145;-88
2022/07/06 02:58:31;;;;;;;1.10;1.00;;;21.60;55.20;;;;;;6232083;22;20176;-88
2022/07/06 03:00:57;;;;;;;1.00;0.90;;;21.60;55.30;;;;;;6206738;22;20144;-89
2022/07/06 03:03:24;;;;;;;1.10;1.00;;;21.60;55.30;;;;;;6206795;22;20153;-89
2022/07/06 03:05:50;;;;;;;1.00;0.98;;;21.60;55.30;;;;;;6206556;22;20478;-88
2022/07/06 03:08:16;;;;;;;1.60;1.30;;;21.60;55.30;;;;;;6255838;22;20137;-89
2022/07/06 03:10:44;;;;;;;1.30;1.20;;;21.60;55.20;;;;;;6205546;22;20227;-88
2022/07/06 03:13:10;;;;;;;0.95;0.95;;;21.60;55.20;;;;;;6230559;22;20172;-91
2022/07/06 03:15:37;;;;;;;1.23;1.13;;;21.60;55.20;;;;;;6204510;22;20149;-89
2022/07/06 03:18:04;;;;;;;1.20;1.10;;;21.60;55.20;;;;;;6229243;22;20148;-90
2022/07/06 03:20:30;;;;;;;1.27;1.17;;;21.60;55.20;;;;;;6204511;22;20183;-88
2022/07/06 03:22:57;;;;;;;1.50;1.20;;;21.50;55.10;;;;;;6205800;22;20145;-88
2022/07/06 03:25:23;;;;;;;1.17;1.08;;;21.60;55.20;;;;;;6201143;23;20533;-89
2022/07/06 03:27:49;;;;;;;1.13;1.05;;;21.60;55.20;;;;;;6176800;23;20218;-88
2022/07/06 03:30:15;;;;;;;1.33;1.02;;;21.70;55.20;;;;;;6179965;23;20217;-88
2022/07/06 03:32:41;;;;;;;1.05;0.95;;;21.60;55.10;;;;;;6180921;23;20142;-90
2022/07/06 03:35:07;;;;;;;1.67;1.38;;;21.60;55.10;;;;;;6180599;23;20180;-89
2022/07/06 03:37:32;;;;;;;1.20;1.10;;;21.60;55.20;;;;;;6205212;23;20161;-87
2022/07/06 03:46:55;;;;;;;1.15;1.05;;;21.60;55.30;;;;;;6259006;23;20133;-87
2022/07/06 03:49:21;;;;;;;2.15;1.33;;;21.60;55.30;;;;;;6183346;23;20153;-89
2022/07/06 03:51:48;;;;;;;1.33;1.23;;;21.60;55.30;;;;;;6207525;23;20138;-87
2022/07/06 03:54:13;;;;;;;0.90;0.90;;;21.60;55.30;;;;;;6206934;23;20496;-88
2022/07/06 03:56:40;;;;;;;1.10;1.00;;;21.60;55.30;;;;;;6207797;23;20149;-89
2022/07/06 03:59:06;;;;;;;0.90;0.90;;;21.70;55.30;;;;;;6206530;23;20245;-86
2022/07/06 04:01:33;;;;;;;1.13;0.98;;;21.60;55.30;;;;;;6182096;23;20197;-87
2022/07/06 04:03:59;;;;;;;1.10;1.00;;;21.60;55.40;;;;;;6178629;23;20156;-86
2022/07/06 04:06:34;;;;;;;1.10;1.00;;;21.60;55.30;;;;;;6177061;23;20177;-87
2022/07/06 04:09:00;;;;;;;1.27;1.15;;;21.60;55.40;;;;;;6202761;23;20153;-89
2022/07/06 04:11:27;;;;;;;1.30;1.10;;;21.60;55.30;;;;;;6174931;23;20153;-88
2022/07/06 04:13:54;;;;;;;1.33;1.23;;;21.70;55.30;;;;;;6175520;23;20174;-89
2022/07/06 04:16:20;;;;;;;1.20;1.10;;;21.70;55.30;;;;;;6173698;23;20178;-88
2022/07/06 04:18:47;;;;;;;1.10;1.00;;;21.70;55.30;;;;;;6197077;23;20142;-87
2022/07/06 04:21:14;;;;;;;1.05;0.95;;;21.70;55.20;;;;;;6172316;23;20150;-87
2022/07/06 04:23:39;;;;;;;1.77;1.20;;;21.70;55.20;;;;;;6170224;23;20150;-88
2022/07/06 04:26:06;;;;;;;1.25;1.15;;;21.70;55.30;;;;;;6168351;23;20495;-89
2022/07/06 04:28:32;;;;;;;0.80;0.80;;;21.70;55.20;;;;;;6120670;23;20215;-87
2022/07/06 04:31:01;;;;;;;1.13;1.00;;;21.70;55.20;;;;;;6121101;23;20162;-89
2022/07/06 04:33:27;;;;;;;1.23;1.10;;;21.70;55.20;;;;;;6144906;23;20182;-88
2022/07/06 04:35:54;;;;;;;0.90;0.88;;;21.60;55.20;;;;;;6145852;23;20154;-91
2022/07/06 04:38:21;;;;;;;1.17;1.08;;;21.70;55.40;;;;;;6120575;23;20154;-90
2022/07/06 04:40:47;;;;;;;2.72;1.30;;;21.60;55.30;;;;;;6137487;23;20149;-89
2022/07/06 04:43:13;;;;;;;1.20;1.10;;;21.70;55.40;;;;;;6206164;23;20145;-87
2022/07/06 04:45:41;;;;;;;1.15;1.05;;;21.70;55.30;;;;;;6181290;23;20145;-88
2022/07/06 04:48:08;;;;;;;0.80;0.80;;;21.70;55.40;;;;;;6181787;23;20153;-88
2022/07/06 04:50:35;;;;;;;1.20;1.10;;;21.70;55.40;;;;;;6206615;23;20151;-88
2022/07/06 04:53:00;;;;;;;0.90;0.90;;;21.70;55.40;;;;;;6180991;23;20145;-88
2022/07/06 04:55:26;;;;;;;1.17;1.08;;;21.70;55.40;;;;;;6232675;23;20563;-90
2022/07/06 04:57:52;;;;;;;0.93;0.90;;;21.70;55.30;;;;;;6207281;23;20546;-89
2022/07/06 05:00:18;;;;;;;1.73;1.15;;;21.70;55.50;;;;;;6181653;23;20149;-91
2022/07/06 05:02:45;;;;;;;1.20;1.10;;;21.70;55.80;;;;;;6170835;23;20155;-89
2022/07/06 05:05:12;;;;;;;1.10;1.00;;;21.60;55.80;;;;;;6147028;23;20155;-88
2022/07/06 05:07:39;;;;;;;1.10;1.00;;;21.50;56.30;;;;;;6122453;23;20219;-89
2022/07/06 05:10:08;;;;;;;1.20;1.10;;;21.40;56.60;;;;;;6123179;23;20174;-88
2022/07/06 05:12:35;;;;;;;1.10;1.10;;;21.40;56.80;;;;;;6147378;23;20157;-86
2022/07/06 05:15:06;;;;;;;1.30;1.20;;;21.40;57.10;;;;;;6145492;23;20179;-87
2022/07/06 05:17:41;;;;;;;1.15;1.02;;;21.40;57.00;;;;;;6170754;23;20157;-87
2022/07/06 05:20:07;;;;;;;1.13;1.10;;;21.40;57.10;;;;;;6145324;23;20147;-89
2022/07/06 05:22:34;;;;;;;1.10;1.00;;;21.50;57.10;;;;;;6143896;23;20224;-88
2022/07/06 05:25:00;;;;;;;1.48;1.10;;;21.50;56.90;;;;;;6175338;23;20675;-89
2022/07/06 05:27:26;;;;;;;1.23;1.13;;;21.50;56.70;;;;;;6148182;23;20153;-90
2022/07/06 05:29:54;;;;;;;1.10;1.05;;;21.50;56.60;;;;;;6142644;23;20163;-91
2022/07/06 05:32:19;;;;;;;1.08;1.00;;;21.50;56.70;;;;;;6167882;23;20154;-88
2022/07/06 05:34:46;;;;;;;1.15;1.05;;;21.50;56.50;;;;;;6195811;23;20237;-87
2022/07/06 05:37:14;;;;;;;1.20;1.10;;;21.60;56.60;;;;;;6197066;23;20150;-90
2022/07/06 05:39:43;;;;;;;1.02;1.00;;;21.70;56.40;;;;;;6172458;23;20142;-91
2022/07/06 05:42:09;;;;;;;0.90;0.90;;;21.70;56.40;;;;;;6173311;23;20170;-87
2022/07/06 05:44:41;;;;;;;1.02;1.00;;;21.70;56.30;;;;;;6148772;23;20221;-88
2022/07/06 05:52:29;;;;;;;1.15;1.00;;;21.80;56.30;;;;;;6177040;23;20137;-88
2022/07/06 05:54:55;;;;;;;1.00;0.90;;;21.80;56.30;;;;;;6146700;23;20264;-88
2022/07/06 05:57:20;;;;;;;0.95;0.82;;;21.80;56.20;;;;;;6171045;23;20131;-90
2022/07/06 05:59:46;;;;;;;1.20;1.10;;;21.80;56.30;;;;;;6170129;23;20134;-89
2022/07/06 06:02:13;;;;;;;1.00;1.00;;;21.80;56.00;;;;;;6169245;23;20550;-89
2022/07/06 06:04:48;;;;;;;1.10;1.00;;;21.90;56.20;;;;;;6144770;23;20652;-88
2022/07/06 06:07:17;;;;;;;1.30;1.02;;;21.80;56.10;;;;;;6209549;23;20156;-89
2022/07/06 06:09:43;;;;;;;1.08;1.05;;;21.90;56.10;;;;;;6225520;23;20600;-90
2022/07/06 06:12:09;;;;;;;1.13;1.02;;;21.80;56.00;;;;;;6200687;23;20149;-92
2022/07/06 06:14:35;;;;;;;1.15;1.08;;;21.90;55.90;;;;;;6200599;23;20184;-90
2022/07/06 06:17:00;;;;;;;0.95;0.95;;;21.90;55.90;;;;;;6200425;23;20573;-88
2022/07/06 06:19:26;;;;;;;1.40;1.30;;;21.90;56.00;;;;;;6199681;23;20153;-90
2022/07/06 06:21:52;;;;;;;1.25;1.15;;;22.00;56.00;;;;;;6200507;23;20273;-90
2022/07/06 06:24:18;;;;;;;1.13;1.02;;;22.00;55.80;;;;;;6195523;23;20196;-92
2022/07/06 06:26:43;;;;;;;1.20;1.10;;;22.00;55.90;;;;;;6199979;23;20212;-92
2022/07/06 06:29:09;;;;;;;1.40;1.20;;;21.90;56.10;;;;;;6175330;23;20220;-88
2022/07/06 06:31:37;;;;;;;1.10;1.05;;;21.90;56.20;;;;;;6175405;23;20683;-89
2022/07/06 06:34:02;;;;;;;1.35;1.25;;;22.00;56.20;;;;;;6175602;23;20252;-89
2022/07/06 06:36:28;;;;;;;1.20;1.05;;;22.00;56.00;;;;;;6174935;23;20137;-89
2022/07/06 06:38:54;;;;;;;1.20;1.10;;;22.00;56.20;;;;;;6201206;23;20212;-87
2022/07/06 06:41:20;;;;;;;1.20;1.10;;;22.00;56.00;;;;;;6199407;23;20130;-87
2022/07/06 06:43:47;;;;;;;1.27;1.17;;;22.00;56.00;;;;;;6175784;23;20168;-91
2022/07/06 06:46:14;;;;;;;1.35;1.25;;;22.00;56.20;;;;;;6201158;23;20141;-88
2022/07/06 06:48:41;;;;;;;0.90;0.90;;;22.00;56.30;;;;;;6178575;23;20145;-90
2022/07/06 06:51:11;;;;;;;1.13;1.05;;;22.00;56.20;;;;;;6179111;23;20149;-88
2022/07/06 06:53:36;;;;;;;1.48;1.30;;;22.10;56.40;;;;;;6182516;23;20181;-88
2022/07/06 06:56:20;;;;;;;1.45;1.35;;;22.00;56.30;;;;;;6202784;23;20130;-88
2022/07/06 06:58:46;;;;;;;1.30;1.20;;;22.10;56.30;;;;;;6204249;23;20133;-91
2022/07/06 07:01:14;;;;;;;1.13;1.08;;;22.10;56.40;;;;;;6174840;23;20138;-89
2022/07/06 07:03:41;;;;;;;1.38;1.08;;;22.10;56.20;;;;;;6226673;23;20465;-91
2022/07/06 07:06:08;;;;;;;1.30;1.20;;;22.10;56.10;;;;;;6176608;23;20161;-93
2022/07/06 07:08:35;;;;;;;1.52;1.42;;;22.20;56.20;;;;;;6177077;23;20134;-90
2022/07/06 07:11:02;;;;;;;1.20;1.10;;;22.20;56.20;;;;;;6201170;23;20154;-89
2022/07/06 07:13:28;;;;;;;1.10;1.08;;;22.20;56.10;;;;;;6177863;23;20651;-88
2022/07/06 07:15:54;;;;;;;1.08;1.05;;;22.20;56.20;;;;;;6201797;23;20129;-89
2022/07/06 07:18:24;;;;;;;1.30;1.08;;;22.20;56.10;;;;;;6201303;23;20204;-89
2022/07/06 07:20:51;;;;;;;1.10;1.10;;;22.30;56.10;;;;;;6177091;23;20512;-89
2022/07/06 07:23:17;;;;;;;1.55;1.45;;;22.20;56.20;;;;;;6177160;23;20149;-91
2022/07/06 07:25:47;;;;;;;1.25;1.15;;;22.30;56.00;;;;;;6175838;23;20311;-90
2022/07/06 07:28:15;;;;;;;1.40;1.30;;;22.30;56.00;;;;;;6176796;23;20214;-89
2022/07/06 07:30:40;;;;;;;1.25;1.15;;;22.30;56.00;;;;;;6201319;23;20160;-91
2022/07/06 07:33:06;;;;;;;1.27;1.17;;;22.40;56.00;;;;;;6176336;23;20145;-90
2022/07/06 07:35:34;;;;;;;1.40;1.30;;;22.40;56.00;;;;;;6176729;23;20146;-90
2022/07/06 07:38:00;;;;;;;1.40;1.30;;;22.40;56.10;;;;;;6175945;23;20172;-90
2022/07/06 07:40:27;;;;;;;1.30;1.20;;;22.40;56.00;;;;;;6200960;23;20130;-90
2022/07/06 07:42:53;;;;;;;1.40;1.30;;;22.40;56.00;;;;;;6199714;23;20228;-89
2022/07/06 07:45:27;;;;;;;1.20;1.10;;;22.40;56.10;;;;;;6175989;23;20149;-91
2022/07/06 07:47:55;;;;;;;1.38;1.27;;;22.40;55.90;;;;;;6228310;23;20132;-90
2022/07/06 07:50:24;;;;;;;1.20;1.10;;;22.40;55.90;;;;;;6178762;23;20212;-88
2022/07/06 07:52:50;;;;;;;1.30;1.20;;;22.40;56.00;;;;;;6203287;23;20150;-92
2022/07/06 07:55:16;;;;;;;1.58;1.48;;;22.40;55.90;;;;;;6177593;23;20260;-89
2022/07/06 07:57:42;;;;;;;1.15;1.05;;;22.50;55.90;;;;;;6177684;23;20591;-88
2022/07/06 08:00:11;;;;;;;1.75;1.17;;;22.50;55.80;;;;;;6177107;23;20152;-89
2022/07/06 08:02:37;;;;;;;1.58;1.48;;;22.50;55.80;;;;;;6177235;23;20137;-90
2022/07/06 08:05:03;;;;;;;1.02;1.02;;;22.50;55.80;;;;;;6176990;23;20196;-88
2022/07/06 08:08:05;;;;;;;1.20;1.10;;;22.50;55.90;;;;;;6178335;23;20149;-90
2022/07/06 08:10:57;;;;;;;1.63;1.15;;;22.40;56.00;;;;;;6156471;23;20159;-90
2022/07/06 08:13:56;;;;;;;;;;;;;;;;;;;;;
2022/07/06 08:16:41;;;;;;;1.50;1.40;;;22.50;55.90;;;;;;6049565;23;20200;-89
2022/07/06 08:19:30;;;;;;;1.38;1.27;;;22.50;55.70;;;;;;5966067;24;20155;-89
2022/07/06 08:25:17;;;;;;;1.42;1.33;;;22.50;55.70;;;;;;5943522;24;20199;-89
2022/07/06 08:27:57;;;;;;;1.58;1.48;;;22.50;55.80;;;;;;5913744;24;20165;-89
2022/07/06 08:30:34;;;;;;;1.52;1.15;;;22.50;55.80;;;;;;5912413;24;20156;-89
2022/07/06 08:33:59;;;;;;;;;;;;;;;;;;;;;
2022/07/06 08:36:27;;;;;;;1.40;1.30;;;22.50;55.70;;;;;;5889676;24;20187;-88
2022/07/06 08:38:55;;;;;;;1.40;1.25;;;22.60;55.70;;;;;;5914306;24;20165;-89
2022/07/06 08:41:31;;;;;;;1.50;1.40;;;22.60;55.50;;;;;;5882603;24;20206;-90
2022/07/06 08:44:03;;;;;;;1.08;1.02;;;22.70;55.40;;;;;;5885611;24;20162;-88
2022/07/06 08:46:45;;;;;;;1.50;1.40;;;22.60;55.40;;;;;;5897236;24;20268;-90
2022/07/06 08:50:01;;;;;;;;;;;;;;;;;;;;;
2022/07/06 08:52:30;;;;;;;1.50;1.40;;;22.70;55.30;;;;;;5857197;24;20167;-89
2022/07/06 08:54:59;;;;;;;1.30;1.10;;;22.60;55.40;;;;;;5836016;24;20206;-89
2022/07/06 08:57:40;;;;;;;1.30;1.20;;;22.70;55.40;;;;;;5885750;24;20175;-89
2022/07/06 09:00:08;;;;;;;1.83;1.15;;;22.70;55.40;;;;;;5912405;24;20590;-88
2022/07/06 09:02:34;;;;;;;1.40;1.30;;;22.70;55.30;;;;;;5911966;24;20157;-92
2022/07/06 09:05:11;;;;;;;1.50;1.40;;;22.70;55.40;;;;;;5911206;24;20306;-89
2022/07/06 09:07:45;;;;;;;1.50;1.20;;;22.60;55.40;;;;;;5912811;24;20210;-89
2022/07/06 09:10:13;;;;;;;1.50;1.10;;;22.70;55.40;;;;;;5893708;24;20160;-89
2022/07/06 09:12:42;;;;;;;1.52;1.42;;;22.70;55.30;;;;;;5924368;24;20561;-90
2022/07/06 09:15:09;;;;;;;1.77;1.40;;;22.70;55.30;;;;;;5868119;24;20293;-89
2022/07/06 09:17:39;;;;;;;1.55;1.45;;;22.70;55.40;;;;;;5913240;24;20615;-89
2022/07/06 09:20:10;;;;;;;1.90;1.60;;;22.70;55.40;;;;;;5859849;24;20263;-88
2022/07/06 09:22:37;;;;;;;1.25;1.15;;;22.70;55.40;;;;;;5858614;24;20239;-88
2022/07/06 09:25:05;;;;;;;1.20;1.10;;;22.60;55.40;;;;;;5891982;24;20206;-89
2022/07/06 09:27:33;;;;;;;1.60;1.38;;;22.70;55.40;;;;;;5924212;23;20761;-89
2022/07/06 09:30:05;;;;;;;1.50;1.15;;;22.70;55.40;;;;;;6025882;23;20158;-89
2022/07/06 09:32:45;;;;;;;1.38;1.13;;;22.60;55.50;;;;;;6051306;23;20154;-89
2022/07/06 09:35:30;;;;;;;1.10;1.00;;;22.60;55.60;;;;;;6027276;23;20185;-89
2022/07/06 09:38:10;;;;;;;1.60;1.50;;;22.60;55.70;;;;;;6049732;23;20157;-90
2022/07/06 09:40:41;;;;;;;1.52;1.35;;;22.60;55.60;;;;;;6030251;23;20234;-88
2022/07/06 09:43:14;;;;;;;1.20;1.10;;;22.60;55.60;;;;;;6057185;23;20629;-89
2022/07/06 09:45:43;;;;;;;1.20;1.10;;;22.60;55.50;;;;;;5990775;23;20157;-89
2022/07/06 09:48:17;;;;;;;1.55;1.27;;;22.70;55.50;;;;;;5980384;23;20218;-88
2022/07/06 09:50:54;;;;;;;1.55;1.38;;;22.70;55.40;;;;;;5960324;24;20164;-89
2022/07/06 09:53:50;;;;;;;1.40;1.30;;;22.70;55.40;;;;;;5938906;24;20248;-89
2022/07/06 09:56:19;;;;;;;1.50;1.40;;;22.60;55.40;;;;;;5938561;24;20176;-88
2022/07/06 09:58:50;;;;;;;1.50;1.30;;;22.60;55.30;;;;;;5939620;24;20156;-89
2022/07/06 10:01:29;;;;;;;1.50;1.40;;;22.60;55.30;;;;;;5962182;24;20157;-88
2022/07/06 10:03:55;;;;;;;1.63;1.52;;;22.70;55.30;;;;;;5962859;24;20157;-89
2022/07/06 10:06:21;;;;;;;1.52;1.42;;;22.70;55.30;;;;;;5939189;24;20161;-88
2022/07/06 10:08:57;;;;;;;1.35;1.25;;;22.60;55.30;;;;;;5961685;24;20236;-88
2022/07/06 10:11:23;;;;;;;1.40;1.30;;;22.60;55.30;;;;;;5937789;24;20189;-88
2022/07/06 10:13:54;;;;;;;1.15;1.13;;;22.70;55.20;;;;;;5989092;24;20271;-88
2022/07/06 10:16:23;;;;;;;1.88;1.67;;;22.70;55.30;;;;;;6048501;23;20152;-88
2022/07/06 10:18:53;;;;;;;1.55;1.45;;;22.60;55.30;;;;;;6129065;23;20222;-89
2022/07/06 10:21:28;;;;;;;1.40;1.30;;;22.70;55.30;;;;;;6113509;23;20529;-89
2022/07/06 10:23:59;;;;;;;1.42;1.33;;;22.60;55.20;;;;;;5996828;23;20170;-88
2022/07/06 10:26:33;;;;;;;1.38;1.27;;;22.60;55.20;;;;;;5998886;23;20635;-88
2022/07/06 10:29:08;;;;;;;1.45;1.35;;;22.60;55.30;;;;;;6000492;23;20161;-88
2022/07/06 10:31:40;;;;;;;1.60;1.50;;;22.70;55.30;;;;;;6023964;23;20205;-88
2022/07/06 10:34:09;;;;;;;1.45;1.35;;;22.70;55.30;;;;;;5967504;24;20403;-88
2022/07/06 10:36:39;;;;;;;1.77;1.52;;;22.70;55.00;;;;;;5968180;24;20175;-90
2022/07/06 10:42:01;;;;;;;1.40;1.30;;;22.80;55.20;;;;;;5948597;24;20232;-88
2022/07/06 10:44:32;;;;;;;1.55;1.45;;;22.80;55.00;;;;;;5900423;24;20171;-88
2022/07/06 10:47:01;;;;;;;1.40;1.30;;;22.80;54.90;;;;;;5899235;24;20541;-88
2022/07/06 10:49:28;;;;;;;1.63;1.52;;;22.80;54.80;;;;;;5921489;24;20156;-88
2022/07/06 10:51:58;;;;;;;1.33;1.23;;;22.80;55.00;;;;;;6005326;23;20158;-88
2022/07/06 10:54:25;;;;;;;1.30;1.20;;;22.80;55.00;;;;;;6031629;23;20184;-90
2022/07/06 10:56:53;;;;;;;1.50;1.40;;;22.80;55.00;;;;;;6114241;23;20152;-88
2022/07/06 10:59:21;;;;;;;1.50;1.40;;;22.90;55.00;;;;;;6135578;23;20186;-88
2022/07/06 11:02:14;;;;;;;1.85;1.52;;;22.80;55.60;;;;;;6124202;23;20177;-89
2022/07/06 11:04:47;;;;;;;1.42;1.33;;;22.80;55.60;;;;;;6119347;23;20222;-88
2022/07/06 11:07:16;;;;;;;1.48;1.38;;;22.80;54.90;;;;;;6119130;23;20159;-89
2022/07/06 11:09:54;;;;;;;1.35;1.25;;;22.80;55.60;;;;;;6119175;23;20151;-89
2022/07/06 11:12:21;;;;;;;1.50;1.40;;;22.80;54.80;;;;;;6118852;23;20151;-89
2022/07/06 11:14:49;;;;;;;1.42;1.30;;;22.80;54.80;;;;;;6117692;23;20218;-88
2022/07/06 11:17:19;;;;;;;1.50;1.40;;;22.80;54.80;;;;;;6118048;23;20156;-89
2022/07/06 11:20:01;;;;;;;1.30;1.20;;;22.80;54.80;;;;;;6110289;23;20201;-91
2022/07/06 11:22:42;;;;;;;1.60;1.50;;;22.80;54.70;;;;;;6096130;23;20151;-89
2022/07/06 11:25:15;;;;;;;1.33;1.20;;;22.80;54.80;;;;;;6108762;23;20315;-91
2022/07/06 11:27:44;;;;;;;1.40;1.30;;;22.80;54.70;;;;;;6124419;23;20245;-90
2022/07/06 11:30:15;;;;;;;1.30;1.15;;;22.90;54.60;;;;;;6100796;23;20157;-91
2022/07/06 11:32:55;;;;;;;1.67;1.08;;;22.90;54.50;;;;;;6126156;23;20152;-90
2022/07/06 11:35:23;;;;;;;1.10;1.10;;;22.90;54.50;;;;;;6076982;23;20191;-91
2022/07/06 11:37:49;;;;;;;1.50;1.40;;;22.90;54.70;;;;;;6048920;23;20153;-89
2022/07/06 11:40:18;;;;;;;1.42;1.33;;;22.90;54.60;;;;;;6048311;23;20204;-91
2022/07/06 11:43:02;;;;;;;1.63;1.52;;;22.80;54.80;;;;;;6073734;23;20191;-91
2022/07/06 11:45:31;;;;;;;1.30;1.20;;;22.80;55.00;;;;;;6074059;23;20157;-92
2022/07/06 11:48:19;;;;;;;1.30;1.23;;;22.80;55.00;;;;;;6099859;23;20172;-90
2022/07/06 11:51:07;;;;;;;1.45;1.35;;;22.80;54.90;;;;;;6133332;23;20163;-91
2022/07/06 11:53:51;;;;;;;1.38;1.27;;;22.70;54.90;;;;;;6078074;23;20176;-91
2022/07/06 11:56:27;;;;;;;1.50;1.40;;;22.80;54.70;;;;;;6097337;23;20260;-91
2022/07/06 11:59:00;;;;;;;1.45;1.35;;;22.80;54.60;;;;;;6101052;23;20156;-89
2022/07/06 12:01:31;;;;;;;1.38;1.27;;;22.80;54.50;;;;;;6126367;23;20228;-90
2022/07/06 12:03:59;;;;;;;1.30;1.20;;;22.80;54.50;;;;;;6126059;23;20159;-90
2022/07/06 12:06:33;;;;;;;1.35;1.25;;;22.80;54.40;;;;;;6127866;23;20156;-89
2022/07/06 12:09:24;;;;;;;1.45;1.35;;;22.90;54.50;;;;;;6127562;23;20168;-90
2022/07/06 12:11:54;;;;;;;1.50;1.40;;;22.80;54.50;;;;;;6044878;23;20266;-91
2022/07/06 12:14:25;;;;;;;1.42;1.33;;;22.80;54.60;;;;;;6046867;23;20200;-89
2022/07/06 12:16:59;;;;;;;1.73;1.63;;;22.80;54.60;;;;;;6047570;23;20154;-89
2022/07/06 12:19:26;;;;;;;1.60;1.50;;;22.90;54.60;;;;;;6070560;23;20537;-90
2022/07/06 12:21:57;;;;;;;1.48;1.38;;;22.90;54.50;;;;;;6045807;23;20157;-91
2022/07/06 12:24:26;;;;;;;1.50;1.40;;;22.90;54.40;;;;;;6024468;23;20197;-90
2022/07/06 12:27:09;;;;;;;1.40;1.30;;;22.90;54.30;;;;;;6024744;23;20166;-90
2022/07/06 12:29:35;;;;;;;1.40;1.30;;;22.90;54.30;;;;;;6070470;23;20157;-90
2022/07/06 12:32:23;;;;;;;1.60;1.50;;;22.80;54.40;;;;;;5965259;24;20166;-89
